Time;durP1;ratioP1;P1;durP2;ratioP2;P2;SDS_P1;SDS_P2;PMS_P1;PMS_P2;Temp;Humidity;BMP_temperature;BMP_pressure;BME280_temperature;BME280_humidity;BME280_pressure;Samples;Min_cycle;Max_cycle;Signal;HPM_P1;HPM_P2
2023/03/14 00:02:10;;;;;;;1.60;1.10;;;;;;;11.94;78.83;98295.50;4951677;28;20226;-77
2023/03/14 00:04:37;;;;;;;1.40;0.73;;;;;;;11.94;79.15;98269.34;4951030;28;20237;-76
2023/03/14 00:07:04;;;;;;;1.40;1.10;;;;;;;11.92;79.64;98242.47;4951864;28;20245;-76
2023/03/14 00:09:30;;;;;;;1.70;0.97;;;;;;;11.95;80.14;98210.06;4951721;28;20292;-76
2023/03/14 00:11:58;;;;;;;1.47;1.00;;;;;;;11.96;80.09;98193.44;4950931;28;20211;-77
2023/03/14 00:14:25;;;;;;;1.47;1.20;;;;;;;11.94;80.33;98182.25;4951328;29;20236;-77
2023/03/14 00:16:51;;;;;;;1.10;1.00;;;;;;;11.91;80.69;98170.19;4951359;28;20254;-76
2023/03/14 00:19:17;;;;;;;2.07;1.17;;;;;;;11.91;81.12;98172.78;4951477;28;20229;-77
2023/03/14 00:21:44;;;;;;;1.83;1.20;;;;;;;11.84;81.43;98155.78;4951431;28;20237;-78
2023/03/14 00:24:10;;;;;;;1.30;1.10;;;;;;;11.96;81.43;98131.53;4951177;29;20228;-76
2023/03/14 00:26:36;;;;;;;1.67;1.23;;;;;;;11.97;81.20;98135.84;4951051;28;20230;-76
2023/03/14 00:29:04;;;;;;;2.80;1.00;;;;;;;11.96;81.08;98144.59;4951281;28;20229;-76
2023/03/14 00:31:30;;;;;;;1.20;1.10;;;;;;;12.01;81.06;98153.03;4951505;28;20237;-76
2023/03/14 00:33:57;;;;;;;1.50;1.07;;;;;;;11.99;80.98;98165.34;4951323;29;20308;-76
2023/03/14 00:36:24;;;;;;;1.33;1.23;;;;;;;11.95;80.72;98153.38;4951144;28;20298;-76
2023/03/14 00:38:51;;;;;;;1.87;0.70;;;;;;;11.80;80.88;98170.81;4951239;28;20247;-77
2023/03/14 00:41:22;;;;;;;1.67;1.10;;;;;;;11.85;80.64;98180.97;4951010;28;20251;-76
2023/03/14 00:43:48;;;;;;;2.47;1.10;;;;;;;11.80;80.00;98201.34;4950968;28;20624;-76
2023/03/14 00:46:16;;;;;;;1.83;0.97;;;;;;;11.87;80.35;98198.28;4951175;28;20244;-76
2023/03/14 00:48:42;;;;;;;1.30;1.00;;;;;;;11.87;79.73;98223.56;4951055;28;20240;-77
2023/03/14 00:51:11;;;;;;;2.60;1.00;;;;;;;11.87;79.41;98242.72;4950990;28;20231;-76
2023/03/14 00:53:39;;;;;;;1.53;1.10;;;;;;;11.84;78.76;98250.72;4950378;29;21083;-77
2023/03/14 00:56:07;;;;;;;2.07;1.03;;;;;;;11.94;77.96;98263.28;4951021;28;20260;-76
2023/03/14 00:58:33;;;;;;;2.20;1.70;;;;;;;11.92;77.53;98285.13;4951153;28;20240;-76
2023/03/14 01:01:00;;;;;;;2.43;1.10;;;;;;;11.91;78.19;98272.13;4950759;28;20202;-77
2023/03/14 01:03:27;;;;;;;2.83;1.10;;;;;;;11.94;77.77;98284.22;4950522;28;20237;-76
2023/03/14 01:05:54;;;;;;;1.90;1.43;;;;;;;11.92;78.05;98281.69;4950669;28;20323;-77
2023/03/14 01:08:20;;;;;;;2.53;1.13;;;;;;;11.90;78.23;98275.69;4950686;28;20242;-76
2023/03/14 01:10:46;;;;;;;1.27;1.10;;;;;;;11.85;77.82;98275.94;4950708;29;20296;-76
2023/03/14 01:13:12;;;;;;;2.03;0.87;;;;;;;11.84;77.48;98282.09;4950178;28;20232;-76
2023/03/14 01:15:39;;;;;;;3.13;1.37;;;;;;;11.85;77.58;98273.34;4950285;28;20257;-76
2023/03/14 01:18:05;;;;;;;2.33;1.23;;;;;;;11.84;77.48;98265.56;4950615;28;20234;-76
2023/03/14 01:20:33;;;;;;;2.23;1.10;;;;;;;11.84;78.02;98255.94;4950648;28;20247;-77
2023/03/14 01:22:59;;;;;;;1.73;0.80;;;;;;;11.77;78.15;98266.84;4953101;28;20233;-76
2023/03/14 01:25:26;;;;;;;1.40;1.00;;;;;;;11.76;77.62;98258.19;4952179;28;20228;-77
2023/03/14 01:27:52;;;;;;;3.07;1.10;;;;;;;11.70;77.89;98245.47;4952336;29;20295;-76
2023/03/14 01:30:19;;;;;;;2.10;1.17;;;;;;;11.70;77.82;98241.09;4952925;28;20255;-76
2023/03/14 01:32:46;;;;;;;1.20;1.10;;;;;;;11.76;77.02;98246.91;4953166;28;20260;-77
2023/03/14 01:35:12;;;;;;;1.30;1.17;;;;;;;11.75;77.40;98269.56;4952996;28;20639;-76
2023/03/14 01:37:40;;;;;;;1.30;1.00;;;;;;;11.66;77.64;98252.66;4953395;28;20260;-77
2023/03/14 01:40:07;;;;;;;3.00;1.73;;;;;;;11.63;78.18;98239.75;4953292;28;20750;-76
2023/03/14 01:42:33;;;;;;;1.57;1.30;;;;;;;11.62;77.75;98264.22;4953184;28;20202;-77
2023/03/14 01:45:02;;;;;;;0.93;0.80;;;;;;;11.62;77.87;98260.78;4953449;28;20313;-77
2023/03/14 01:47:28;;;;;;;1.67;1.00;;;;;;;11.61;77.74;98266.91;4953487;28;20228;-76
2023/03/14 01:49:59;;;;;;;1.30;0.80;;;;;;;11.56;77.69;98274.19;4953503;28;20255;-77
2023/03/14 01:52:31;;;;;;;2.27;0.97;;;;;;;11.59;77.46;98248.69;4953503;28;20259;-76
2023/03/14 01:55:04;;;;;;;1.23;0.80;;;;;;;11.60;77.71;98232.09;4953509;29;20722;-77
2023/03/14 01:57:34;;;;;;;3.40;2.23;;;;;;;11.67;77.03;98237.81;4953513;28;20230;-76
2023/03/14 02:00:08;;;;;;;1.80;0.90;;;;;;;11.64;76.77;98228.38;4953344;29;20715;-77
2023/03/14 02:02:35;;;;;;;1.77;0.80;;;;;;;11.62;76.62;98235.47;4953449;29;20212;-77
2023/03/14 02:05:03;;;;;;;1.83;0.63;;;;;;;11.60;76.17;98262.63;4953624;28;20921;-77
2023/03/14 02:07:36;;;;;;;0.97;0.90;;;;;;;11.65;76.11;98253.56;4953470;28;20817;-76
2023/03/14 02:10:06;;;;;;;2.00;1.27;;;;;;;11.58;76.07;98264.50;4953424;28;20256;-77
2023/03/14 02:12:33;;;;;;;0.70;0.70;;;;;;;11.64;75.58;98264.97;4952788;29;20229;-76
2023/03/14 02:14:59;;;;;;;2.07;0.83;;;;;;;11.53;76.08;98275.19;4953059;28;20677;-76
2023/03/14 02:17:26;;;;;;;1.40;0.90;;;;;;;11.43;75.92;98280.09;4953566;28;20267;-76
2023/03/14 02:20:08;;;;;;;1.73;1.20;;;;;;;11.43;75.69;98294.94;4953515;28;20237;-77
2023/03/14 02:22:35;;;;;;;1.70;0.90;;;;;;;11.45;75.64;98304.38;4953011;28;20208;-77
2023/03/14 02:25:10;;;;;;;1.90;1.00;;;;;;;11.41;75.79;98304.63;4953198;29;20209;-77
2023/03/14 02:27:39;;;;;;;2.47;1.00;;;;;;;11.38;75.93;98295.22;4955420;28;20208;-77
2023/03/14 02:30:09;;;;;;;1.30;1.00;;;;;;;11.46;76.08;98303.44;4956977;28;20287;-77
2023/03/14 02:32:39;;;;;;;1.03;0.77;;;;;;;11.32;75.42;98301.63;4956587;28;20205;-76
2023/03/14 02:35:09;;;;;;;1.70;0.97;;;;;;;11.37;75.30;98288.28;4956711;28;20284;-76
2023/03/14 02:37:41;;;;;;;1.40;1.07;;;;;;;11.32;75.83;98295.56;4956554;28;20291;-76
2023/03/14 02:40:09;;;;;;;1.60;1.47;;;;;;;11.41;75.60;98284.56;4956754;29;20722;-76
2023/03/14 02:42:35;;;;;;;1.37;1.10;;;;;;;11.44;75.54;98286.19;4956259;29;20650;-76
2023/03/14 02:45:34;;;;;;;1.30;0.70;;;;;;;11.39;75.49;98275.16;4956535;29;20248;-77
2023/03/14 02:48:05;;;;;;;2.80;1.00;;;;;;;11.27;75.34;98280.13;4956715;28;20625;-77
2023/03/14 02:50:34;;;;;;;1.10;0.80;;;;;;;11.27;75.45;98279.28;4956661;28;20237;-77
2023/03/14 02:53:00;;;;;;;4.47;1.03;;;;;;;11.28;75.36;98279.22;4956129;28;20631;-77
2023/03/14 02:55:27;;;;;;;1.87;0.93;;;;;;;11.27;75.66;98268.84;4956443;28;20264;-77
2023/03/14 02:57:53;;;;;;;2.43;1.00;;;;;;;11.21;75.11;98269.19;4956402;28;20570;-77
2023/03/14 03:00:21;;;;;;;2.83;0.77;;;;;;;11.29;74.63;98280.88;4956340;28;20260;-77
2023/03/14 03:02:48;;;;;;;2.00;0.90;;;;;;;11.27;74.97;98277.53;4955900;28;20696;-77
2023/03/14 03:05:14;;;;;;;2.43;0.80;;;;;;;11.37;75.34;98275.22;4956345;28;20211;-77
2023/03/14 03:07:41;;;;;;;2.63;1.53;;;;;;;11.33;74.59;98292.00;4956244;28;20695;-76
2023/03/14 03:10:08;;;;;;;2.97;1.00;;;;;;;11.37;74.01;98311.81;4956448;28;20214;-77
2023/03/14 03:12:34;;;;;;;1.93;0.80;;;;;;;11.43;74.19;98310.63;4955003;28;20287;-76
2023/03/14 03:15:01;;;;;;;2.00;0.90;;;;;;;11.40;73.74;98313.41;4956305;29;20671;-76
2023/03/14 03:17:28;;;;;;;1.60;0.70;;;;;;;11.45;73.75;98301.75;4956028;28;20260;-77
2023/03/14 03:19:55;;;;;;;1.67;0.83;;;;;;;11.45;73.78;98312.19;4956099;28;20720;-76
2023/03/14 03:22:21;;;;;;;2.00;1.10;;;;;;;11.45;73.77;98303.53;4955488;29;20272;-77
2023/03/14 03:24:47;;;;;;;2.53;0.70;;;;;;;11.41;73.33;98315.09;4955541;28;20233;-77
2023/03/14 03:27:13;;;;;;;2.87;0.70;;;;;;;11.36;73.59;98324.94;4956029;28;20258;-76
2023/03/14 03:29:40;;;;;;;3.43;1.37;;;;;;;11.38;75.26;98290.00;4955857;28;20743;-77
2023/03/14 03:32:06;;;;;;;2.07;0.80;;;;;;;11.35;75.61;98260.59;4955634;28;20568;-77
2023/03/14 03:34:34;;;;;;;1.67;0.83;;;;;;;11.31;75.29;98246.84;4955811;28;20265;-76
2023/03/14 03:37:01;;;;;;;1.93;0.80;;;;;;;11.35;76.15;98226.63;4956057;28;20741;-77
2023/03/14 03:39:27;;;;;;;3.10;0.80;;;;;;;11.35;75.88;98209.19;4954604;28;20237;-77
2023/03/14 03:41:53;;;;;;;2.10;0.87;;;;;;;11.28;75.85;98223.53;4955586;28;20214;-76
2023/03/14 03:44:20;;;;;;;1.67;0.60;;;;;;;11.09;75.70;98213.28;4955653;28;20237;-77
2023/03/14 03:46:46;;;;;;;2.33;0.90;;;;;;;11.12;76.98;98200.91;4955805;28;20677;-76
2023/03/14 03:49:13;;;;;;;0.90;0.57;;;;;;;11.15;76.73;98186.00;4955447;28;20248;-77
2023/03/14 03:51:41;;;;;;;1.87;0.83;;;;;;;11.16;76.57;98187.66;4955589;29;20206;-77
2023/03/14 03:54:07;;;;;;;2.83;0.97;;;;;;;11.16;76.97;98203.31;4955437;29;20245;-77
2023/03/14 03:56:34;;;;;;;2.63;0.93;;;;;;;11.07;78.94;98163.75;4955554;28;20260;-76
2023/03/14 03:59:00;;;;;;;1.23;0.70;;;;;;;11.07;81.14;98113.34;4955573;28;20882;-76
2023/03/14 04:01:26;;;;;;;3.23;0.80;;;;;;;10.99;81.48;98068.56;4955331;28;20265;-77
2023/03/14 04:03:53;;;;;;;1.77;0.60;;;;;;;10.99;83.80;98037.25;4954827;29;20209;-77
2023/03/14 04:06:19;;;;;;;2.57;1.10;;;;;;;10.93;83.74;98007.13;4955315;28;20268;-77
2023/03/14 04:08:47;;;;;;;1.83;0.60;;;;;;;10.66;83.73;98007.84;4955285;28;20244;-76
2023/03/14 04:11:13;;;;;;;1.27;0.40;;;;;;;10.28;84.18;97986.53;4955196;28;20209;-76
2023/03/14 04:13:40;;;;;;;1.43;0.40;;;;;;;10.29;85.49;97949.13;4954979;29;20283;-76
2023/03/14 04:16:14;;;;;;;0.67;0.30;;;;;;;10.11;86.05;97923.16;4954843;28;20255;-77
2023/03/14 04:18:41;;;;;;;0.67;0.30;;;;;;;10.03;86.89;97888.03;4955662;28;20213;-77
2023/03/14 04:21:07;;;;;;;0.87;0.30;;;;;;;10.12;87.76;97871.88;4955541;29;20251;-76
2023/03/14 04:23:34;;;;;;;0.83;0.30;;;;;;;10.04;86.91;97874.91;4954665;28;20275;-77
2023/03/14 04:26:01;;;;;;;1.07;0.30;;;;;;;10.05;85.90;97894.00;4954609;28;20225;-76
2023/03/14 04:28:28;;;;;;;1.27;0.20;;;;;;;10.00;85.22;97903.88;4954564;28;20653;-77
2023/03/14 04:30:54;;;;;;;0.70;0.20;;;;;;;9.87;84.65;97915.00;4954576;28;20212;-76
2023/03/14 04:33:20;;;;;;;0.80;0.20;;;;;;;9.90;85.43;97921.78;4954633;28;20240;-76
2023/03/14 04:35:47;;;;;;;0.23;0.20;;;;;;;9.73;85.07;97926.19;4954529;28;20652;-76
2023/03/14 04:38:14;;;;;;;0.17;0.17;;;;;;;9.61;83.75;97950.28;4954841;28;20233;-76
2023/03/14 04:40:41;;;;;;;1.37;0.30;;;;;;;9.69;83.74;97953.34;4955188;28;20304;-76
2023/03/14 04:43:11;;;;;;;0.73;0.30;;;;;;;9.81;84.65;97957.03;4954492;28;20260;-76
2023/03/14 04:45:38;;;;;;;0.93;0.20;;;;;;;9.81;83.88;97954.44;4954861;28;20261;-76
2023/03/14 04:48:04;;;;;;;0.83;0.40;;;;;;;9.63;83.01;97991.88;4954436;28;20733;-76
2023/03/14 04:50:30;;;;;;;0.97;0.30;;;;;;;9.58;84.07;97976.53;4954126;28;20209;-76
2023/03/14 04:52:57;;;;;;;1.37;0.40;;;;;;;9.59;83.97;97967.75;4954330;28;20245;-76
2023/03/14 04:55:23;;;;;;;0.83;0.43;;;;;;;9.70;84.47;97962.81;4953937;28;20679;-76
2023/03/14 04:57:49;;;;;;;3.13;1.53;;;;;;;9.76;84.39;97959.03;4954164;28;20239;-76
2023/03/14 05:00:18;;;;;;;0.63;0.50;;;;;;;9.77;84.29;97962.47;4954625;28;20272;-77
2023/03/14 05:02:45;;;;;;;2.00;0.47;;;;;;;9.86;84.47;97959.38;4954087;28;20213;-76
2023/03/14 05:05:11;;;;;;;2.03;0.50;;;;;;;9.76;84.15;97972.06;4954147;28;20609;-76
2023/03/14 05:07:38;;;;;;;1.47;0.43;;;;;;;9.86;85.08;97961.97;4954212;28;20305;-76
2023/03/14 05:10:04;;;;;;;1.47;0.80;;;;;;;9.90;85.00;97948.69;4954183;28;20679;-77
2023/03/14 05:12:31;;;;;;;1.80;0.90;;;;;;;9.98;85.39;97937.81;4953840;28;20236;-77
2023/03/14 05:14:57;;;;;;;0.60;0.57;;;;;;;9.99;84.74;97939.50;4954047;29;20634;-76
2023/03/14 05:17:25;;;;;;;1.63;0.73;;;;;;;10.05;84.49;97943.50;4954041;28;20291;-76
2023/03/14 05:19:51;;;;;;;2.00;0.70;;;;;;;10.02;84.94;97946.31;4954133;28;20248;-76
2023/03/14 05:22:17;;;;;;;2.47;0.70;;;;;;;10.06;84.63;97942.59;4954074;28;20250;-77
2023/03/14 05:24:44;;;;;;;2.13;0.60;;;;;;;9.92;84.24;97940.78;4953720;28;20261;-77
2023/03/14 05:27:10;;;;;;;2.60;0.70;;;;;;;9.80;84.00;97967.53;4953428;28;20290;-76
2023/03/14 05:29:36;;;;;;;1.23;0.60;;;;;;;9.87;84.58;97951.47;4953975;28;20233;-76
2023/03/14 05:32:03;;;;;;;1.37;0.63;;;;;;;9.81;84.30;97954.44;4953620;28;20722;-76
2023/03/14 05:34:30;;;;;;;0.90;0.47;;;;;;;9.84;84.22;97942.97;4954070;28;20676;-77
2023/03/14 05:36:57;;;;;;;1.67;0.60;;;;;;;9.89;84.03;97951.34;4953603;28;20263;-76
2023/03/14 05:39:23;;;;;;;2.37;0.67;;;;;;;9.81;83.40;97975.25;4953720;28;20213;-76
2023/03/14 05:41:50;;;;;;;0.67;0.33;;;;;;;9.87;83.68;97967.09;4953569;28;20240;-78
2023/03/14 05:44:16;;;;;;;0.30;0.30;;;;;;;9.82;83.58;97968.28;4954095;28;20212;-77
2023/03/14 05:46:43;;;;;;;3.27;1.93;;;;;;;9.67;84.15;97957.78;4954113;28;20269;-76
2023/03/14 05:49:09;;;;;;;3.00;1.17;;;;;;;9.78;84.32;97957.19;4953700;29;20239;-76
2023/03/14 05:51:36;;;;;;;2.30;0.80;;;;;;;9.74;84.56;97942.66;4953503;28;20236;-77
2023/03/14 05:54:03;;;;;;;1.47;0.60;;;;;;;9.71;84.86;97941.06;4953333;29;20293;-76
2023/03/14 05:56:29;;;;;;;1.87;0.70;;;;;;;9.81;84.95;97932.72;4952997;28;20724;-76
2023/03/14 05:58:56;;;;;;;2.83;0.90;;;;;;;9.89;84.80;97927.91;4953748;28;20240;-76
2023/03/14 06:01:22;;;;;;;1.87;0.50;;;;;;;9.89;84.55;97935.72;4953624;28;20312;-77
2023/03/14 06:03:48;;;;;;;1.57;0.60;;;;;;;9.76;84.61;97929.56;4957521;28;20310;-76
2023/03/14 06:06:16;;;;;;;2.50;0.60;;;;;;;9.81;84.71;97924.91;4957358;28;20712;-76
2023/03/14 06:08:44;;;;;;;3.07;0.70;;;;;;;9.75;84.90;97923.47;4957126;29;20650;-77
2023/03/14 06:11:10;;;;;;;2.07;0.70;;;;;;;9.77;84.78;97933.81;4957442;28;20208;-76
2023/03/14 06:13:36;;;;;;;1.13;0.53;;;;;;;9.77;84.61;97936.44;4956992;29;20247;-76
2023/03/14 06:16:03;;;;;;;1.87;0.60;;;;;;;9.76;84.38;97946.00;4957025;28;20721;-77
2023/03/14 06:18:29;;;;;;;2.47;0.70;;;;;;;9.65;84.60;97938.81;4957254;28;20240;-77
2023/03/14 06:20:56;;;;;;;2.07;0.50;;;;;;;9.80;84.81;97933.66;4957221;28;20234;-77
2023/03/14 06:23:22;;;;;;;1.47;0.77;;;;;;;9.71;84.62;97942.81;4956718;28;20209;-76
2023/03/14 06:25:50;;;;;;;2.93;0.60;;;;;;;9.78;84.71;97945.94;4956748;28;20888;-76
2023/03/14 06:28:16;;;;;;;5.40;0.70;;;;;;;9.81;84.64;97945.75;4957707;29;20208;-76
2023/03/14 06:30:43;;;;;;;2.20;0.50;;;;;;;9.82;84.12;97948.28;4956999;29;20242;-76
2023/03/14 06:33:09;;;;;;;2.37;0.70;;;;;;;9.77;84.51;97949.44;4956924;28;20251;-76
2023/03/14 06:35:35;;;;;;;1.13;0.47;;;;;;;9.90;84.12;97948.69;4956608;28;20320;-76
2023/03/14 06:38:02;;;;;;;2.07;0.80;;;;;;;9.98;83.95;97974.31;4956623;29;20206;-76
2023/03/14 06:40:28;;;;;;;3.60;0.57;;;;;;;9.93;84.81;97976.34;4956920;29;20238;-76
2023/03/14 06:42:56;;;;;;;2.33;0.60;;;;;;;9.97;84.60;97954.41;4956395;29;20710;-78
2023/03/14 06:45:22;;;;;;;1.83;0.53;;;;;;;9.96;84.51;97964.91;4958764;28;20743;-77
2023/03/14 06:47:49;;;;;;;1.50;0.40;;;;;;;9.88;84.65;97971.38;4956950;28;20209;-77
2023/03/14 06:50:15;;;;;;;0.93;0.53;;;;;;;10.03;85.22;97947.97;4956953;28;20205;-76
2023/03/14 06:52:45;;;;;;;0.40;0.40;;;;;;;10.12;85.93;97926.59;4956020;28;20208;-76
2023/03/14 06:55:12;;;;;;;1.80;0.50;;;;;;;10.14;86.34;97922.16;4956390;28;20229;-76
2023/03/14 06:57:38;;;;;;;1.67;0.77;;;;;;;10.12;86.41;97919.63;4956377;28;20719;-77
2023/03/14 07:00:08;;;;;;;1.13;0.50;;;;;;;10.10;87.45;97903.22;4956602;28;20237;-76
2023/03/14 07:02:34;;;;;;;1.20;0.50;;;;;;;10.03;87.10;97904.53;4955853;28;20239;-77
2023/03/14 07:05:01;;;;;;;0.80;0.60;;;;;;;10.07;87.60;97890.41;4956276;28;20247;-76
2023/03/14 07:07:27;;;;;;;0.87;0.30;;;;;;;10.08;87.99;97888.63;4956383;28;20314;-77
2023/03/14 07:09:54;;;;;;;1.33;0.40;;;;;;;10.07;88.49;97871.31;4956438;28;20243;-76
2023/03/14 07:12:20;;;;;;;2.27;0.50;;;;;;;10.11;88.79;97871.03;4955792;28;20214;-76
2023/03/14 07:14:46;;;;;;;1.47;0.50;;;;;;;10.14;88.79;97867.41;4956483;28;20236;-77
2023/03/14 07:17:14;;;;;;;2.10;0.77;;;;;;;10.27;88.97;97863.16;4956023;28;20269;-77
2023/03/14 07:19:40;;;;;;;1.67;0.47;;;;;;;10.30;88.80;97849.94;4955923;28;20263;-77
2023/03/14 07:22:07;;;;;;;1.97;0.73;;;;;;;10.18;89.17;97863.69;4955864;28;20241;-77
2023/03/14 07:24:33;;;;;;;1.80;0.60;;;;;;;10.28;89.26;97854.38;4955936;29;20250;-76
2023/03/14 07:27:00;;;;;;;3.40;0.80;;;;;;;10.14;90.24;97836.13;4955828;28;20257;-77
2023/03/14 07:29:26;;;;;;;1.83;0.60;;;;;;;10.10;91.59;97814.59;4956072;28;20648;-77
2023/03/14 07:31:52;;;;;;;1.63;0.80;;;;;;;10.21;91.43;97787.06;4955594;28;20209;-76
2023/03/14 07:34:20;;;;;;;1.37;0.57;;;;;;;10.19;92.45;97783.72;4955731;28;20298;-76
2023/03/14 07:36:46;;;;;;;1.80;0.70;;;;;;;10.25;92.03;97776.38;4955532;28;20247;-77
2023/03/14 07:39:13;;;;;;;1.50;0.50;;;;;;;10.31;92.09;97767.38;4955867;28;20247;-77
2023/03/14 07:41:39;;;;;;;2.27;0.80;;;;;;;10.36;91.87;97780.13;4955538;28;20219;-77
2023/03/14 07:44:05;;;;;;;3.07;1.07;;;;;;;10.39;92.25;97772.13;4955662;29;20263;-76
2023/03/14 07:46:31;;;;;;;4.07;0.70;;;;;;;10.39;92.55;97766.91;4955485;28;20256;-77
2023/03/14 07:48:58;;;;;;;1.97;0.77;;;;;;;10.45;92.50;97762.16;4955479;28;20419;-77
2023/03/14 07:51:25;;;;;;;1.47;0.77;;;;;;;10.26;93.19;97754.56;4955448;28;20627;-76
2023/03/14 07:53:52;;;;;;;1.97;0.83;;;;;;;10.37;93.55;97733.09;4955059;28;20228;-77
2023/03/14 07:56:18;;;;;;;1.83;0.80;;;;;;;10.37;92.88;97740.94;4955490;28;20274;-77
2023/03/14 07:58:44;;;;;;;1.60;0.70;;;;;;;10.38;92.50;97752.19;4955436;28;20671;-76
2023/03/14 08:01:11;;;;;;;1.60;0.80;;;;;;;10.19;91.30;97765.47;4955372;28;20214;-76
2023/03/14 08:03:37;;;;;;;1.87;0.70;;;;;;;10.20;91.14;97775.81;4955309;29;20715;-77
2023/03/14 08:06:04;;;;;;;3.53;0.90;;;;;;;10.17;90.65;97799.47;4956387;28;20275;-77
2023/03/14 08:08:31;;;;;;;2.73;1.30;;;;;;;10.29;90.44;97792.69;4956578;28;20699;-77
2023/03/14 08:11:04;;;;;;;4.10;0.90;;;;;;;10.34;89.98;97811.50;4956679;28;20206;-77
2023/03/14 08:13:30;;;;;;;2.50;0.77;;;;;;;10.45;89.99;97819.53;4956114;29;20213;-77
2023/03/14 08:15:57;;;;;;;3.77;0.87;;;;;;;10.52;89.03;97846.91;4955922;28;20690;-77
2023/03/14 08:18:23;;;;;;;2.53;0.80;;;;;;;10.68;88.66;97857.25;4957182;28;20217;-77
2023/03/14 08:20:50;;;;;;;2.93;0.90;;;;;;;10.72;88.04;97876.16;4956854;28;20215;-77
2023/03/14 08:23:16;;;;;;;2.53;0.70;;;;;;;10.79;87.93;97881.84;4956078;28;20220;-77
2023/03/14 08:25:44;;;;;;;1.70;0.60;;;;;;;10.84;87.33;97909.34;4954901;28;20577;-77
2023/03/14 08:28:10;;;;;;;1.07;0.80;;;;;;;10.71;86.85;97937.09;4955750;29;20206;-77
2023/03/14 08:30:36;;;;;;;1.40;0.73;;;;;;;10.80;86.74;97941.78;4955646;29;20205;-76
2023/03/14 08:33:03;;;;;;;0.63;0.50;;;;;;;10.63;88.19;97952.38;4955268;28;20722;-77
2023/03/14 08:35:32;;;;;;;1.50;0.50;;;;;;;10.53;91.34;97895.53;4955204;28;20259;-77
2023/03/14 08:37:58;;;;;;;1.50;0.80;;;;;;;10.44;93.01;97828.25;4955161;28;20266;-77
2023/03/14 08:40:25;;;;;;;1.40;0.80;;;;;;;10.44;93.99;97802.19;4955199;28;20209;-77
2023/03/14 08:42:53;;;;;;;2.00;0.77;;;;;;;10.51;94.31;97781.81;4954510;29;20209;-77
2023/03/14 08:45:19;;;;;;;1.77;0.70;;;;;;;10.55;95.64;97748.56;4954775;28;20703;-77
2023/03/14 08:47:47;;;;;;;3.07;0.70;;;;;;;10.51;96.39;97727.03;4954816;29;20629;-77
2023/03/14 08:50:17;;;;;;;2.57;0.80;;;;;;;10.51;97.13;97696.56;4954439;29;20209;-77
2023/03/14 08:52:43;;;;;;;1.30;0.60;;;;;;;10.42;97.63;97691.91;4954503;29;20209;-76
2023/03/14 08:55:13;;;;;;;2.93;1.03;;;;;;;10.53;97.90;97684.25;4954407;28;20252;-77
2023/03/14 08:57:40;;;;;;;3.50;1.10;;;;;;;10.54;97.21;97700.75;4954747;29;20232;-76
2023/03/14 09:00:14;;;;;;;2.63;0.73;;;;;;;10.60;96.58;97715.16;4953243;28;20201;-76
2023/03/14 09:02:41;;;;;;;1.70;0.57;;;;;;;10.63;95.83;97726.25;4954326;29;20208;-77
2023/03/14 09:05:08;;;;;;;2.37;0.67;;;;;;;10.84;95.45;97746.69;4953885;28;20209;-77
2023/03/14 09:07:35;;;;;;;0.90;0.50;;;;;;;10.94;94.89;97763.44;4953797;29;20652;-77
2023/03/14 09:10:02;;;;;;;0.95;0.50;;;;;;;11.01;93.32;97777.78;4963057;28;20442;-76
2023/03/14 09:12:31;;;;;;;3.33;0.50;;;;;;;10.91;91.94;97821.91;4972774;28;20212;-77
2023/03/14 09:14:57;;;;;;;0.63;0.50;;;;;;;11.02;91.69;97839.50;4957661;28;20228;-77
2023/03/14 09:17:25;;;;;;;0.93;0.60;;;;;;;11.03;90.68;97871.66;4969127;28;20764;-76
2023/03/14 09:19:51;;;;;;;1.37;0.60;;;;;;;10.82;90.46;97886.88;4962378;28;20228;-78
2023/03/14 09:22:18;;;;;;;0.87;0.50;;;;;;;11.04;90.86;97878.56;4974187;28;20244;-77
2023/03/14 09:24:44;;;;;;;1.20;0.40;;;;;;;10.96;89.62;97902.53;4961559;28;20205;-77
2023/03/14 09:27:10;;;;;;;2.53;0.67;;;;;;;11.15;89.60;97898.78;4958345;28;20225;-76
2023/03/14 09:29:37;;;;;;;2.20;0.50;;;;;;;11.12;87.49;97936.38;4964448;28;20239;-76
2023/03/14 09:32:04;;;;;;;0.73;0.37;;;;;;;11.20;87.70;97944.56;4955599;28;20209;-77
2023/03/14 09:34:31;;;;;;;1.50;0.60;;;;;;;11.30;88.01;97957.91;4955971;28;20217;-77
2023/03/14 09:36:58;;;;;;;0.60;0.30;;;;;;;11.30;87.81;97973.56;4969212;28;20264;-77
2023/03/14 09:39:24;;;;;;;0.93;0.40;;;;;;;11.33;87.41;97965.53;4993072;23;20245;-80
2023/03/14 09:41:54;;;;;;;0.70;0.37;;;;;;;11.41;88.10;97962.44;4995441;28;20242;-81
2023/03/14 09:44:25;;;;;;;0.90;0.50;;;;;;;11.46;86.87;97971.69;4996831;28;20227;-82
2023/03/14 09:46:54;;;;;;;0.53;0.30;;;;;;;11.61;86.13;97982.09;4996111;28;20215;-83
2023/03/14 09:49:23;;;;;;;0.30;0.30;;;;;;;11.79;85.88;98008.84;4996021;28;20228;-82
2023/03/14 09:51:55;;;;;;;8.60;1.53;;;;;;;11.83;85.80;98007.72;4995855;28;20212;-79
2023/03/14 09:54:31;;;;;;;0.37;0.20;;;;;;;11.78;83.84;98042.00;4997598;28;20208;-80
2023/03/14 09:56:58;;;;;;;0.50;0.30;;;;;;;11.69;84.85;98058.22;4997499;28;20258;-81
2023/03/14 09:59:26;;;;;;;0.67;0.47;;;;;;;11.49;85.38;98051.63;4997374;28;20227;-80
2023/03/14 10:01:53;;;;;;;1.50;0.50;;;;;;;11.66;86.04;98034.94;4996505;28;20199;-79
2023/03/14 10:04:23;;;;;;;0.63;0.30;;;;;;;11.64;86.71;98015.88;4996432;28;20203;-80
2023/03/14 10:06:51;;;;;;;0.47;0.30;;;;;;;11.63;87.21;98016.81;4997640;28;20295;-80
2023/03/14 10:09:24;;;;;;;0.90;0.20;;;;;;;11.64;87.22;97998.44;4997756;28;20577;-80
2023/03/14 10:11:54;;;;;;;0.57;0.40;;;;;;;11.71;87.53;97986.66;4997006;28;20234;-81
2023/03/14 10:14:30;;;;;;;0.70;0.30;;;;;;;11.74;85.74;98009.16;4996983;28;20240;-80
2023/03/14 10:17:05;;;;;;;1.03;0.30;;;;;;;11.91;86.02;98015.94;4997014;28;20228;-79
2023/03/14 10:19:32;;;;;;;0.93;0.60;;;;;;;12.11;85.46;98017.31;4996823;28;20234;-82
2023/03/14 10:22:02;;;;;;;0.55;0.30;;;;;;;11.91;82.75;98069.09;4996531;28;20437;-80
2023/03/14 10:24:31;;;;;;;0.20;0.20;;;;;;;12.20;85.32;98042.03;4997539;28;20682;-80
2023/03/14 10:27:01;;;;;;;0.50;0.30;;;;;;;12.24;85.87;98020.78;4997255;28;20205;-79
2023/03/14 10:29:29;;;;;;;0.30;0.30;;;;;;;12.11;84.64;98053.91;4997060;28;20317;-80
2023/03/14 10:31:58;;;;;;;0.30;0.30;;;;;;;12.10;84.09;98062.69;4996213;28;20581;-78
2023/03/14 10:34:26;;;;;;;1.17;0.37;;;;;;;12.06;83.21;98093.41;4996570;28;20227;-78
2023/03/14 10:36:54;;;;;;;1.13;0.23;;;;;;;11.92;83.52;98104.72;4996321;28;20205;-80
2023/03/14 10:39:38;;;;;;;0.83;0.50;;;;;;;11.92;84.60;98073.38;4995164;28;20235;-80
2023/03/14 10:42:13;;;;;;;0.30;0.30;;;;;;;11.86;83.73;98073.72;4995236;28;20207;-82
2023/03/14 10:44:40;;;;;;;0.40;0.40;;;;;;;11.92;85.63;98055.06;4995341;28;20228;-80
2023/03/14 10:47:06;;;;;;;0.87;0.20;;;;;;;11.98;84.43;98048.63;4994896;28;20204;-79
2023/03/14 10:49:35;;;;;;;2.20;0.30;;;;;;;12.11;84.12;98065.22;4999436;28;20236;-81
2023/03/14 10:52:15;;;;;;;0.53;0.30;;;;;;;12.25;82.44;98089.63;4998375;28;20207;-80
2023/03/14 10:54:47;;;;;;;1.23;0.30;;;;;;;12.36;82.76;98099.41;4999414;28;20217;-80
2023/03/14 10:57:14;;;;;;;0.70;0.40;;;;;;;12.29;80.81;98112.91;4999940;28;20927;-80
2023/03/14 10:59:43;;;;;;;0.30;0.20;;;;;;;12.36;81.04;98141.28;5000660;28;20251;-80
2023/03/14 11:02:31;;;;;;;0.30;0.30;;;;;;;12.40;81.39;98146.22;4999749;28;20578;-81
2023/03/14 11:05:10;;;;;;;0.63;0.20;;;;;;;11.85;80.27;98187.06;5000248;28;20249;-79
2023/03/14 11:07:40;;;;;;;0.30;0.30;;;;;;;12.04;82.60;98146.75;5000386;28;20215;-80
2023/03/14 11:10:19;;;;;;;0.67;0.50;;;;;;;12.03;81.96;98152.91;4999486;28;20282;-80
2023/03/14 11:12:55;;;;;;;0.30;0.20;;;;;;;12.27;82.78;98135.69;4999814;28;20286;-80
2023/03/14 11:15:29;;;;;;;0.30;0.20;;;;;;;12.50;82.56;98117.69;4999680;28;20205;-80
2023/03/14 11:18:17;;;;;;;0.67;0.30;;;;;;;12.70;81.66;98112.03;4999866;28;20236;-80
2023/03/14 11:20:50;;;;;;;0.40;0.40;;;;;;;12.78;80.37;98144.69;4999970;28;20252;-80
2023/03/14 11:23:21;;;;;;;0.30;0.30;;;;;;;12.99;80.41;98163.41;4999106;28;20212;-80
2023/03/14 11:25:57;;;;;;;0.23;0.23;;;;;;;13.19;79.24;98183.88;4999501;28;20243;-80
2023/03/14 11:28:30;;;;;;;0.50;0.20;;;;;;;13.04;78.01;98216.31;5000408;28;20248;-80
2023/03/14 11:31:05;;;;;;;0.90;0.40;;;;;;;13.00;79.53;98215.69;4999289;28;20733;-79
2023/03/14 11:33:37;;;;;;;0.97;0.30;;;;;;;13.10;80.14;98197.56;4998996;28;20202;-80
2023/03/14 11:36:07;;;;;;;0.37;0.23;;;;;;;13.25;80.67;98169.53;4998981;28;20247;-80
2023/03/14 11:38:39;;;;;;;0.30;0.30;;;;;;;13.05;80.42;98173.50;4998113;28;20227;-79